sensor_id;sensor_type;location;lat;lon;timestamp;P1;durP1;ratioP1;P2;durP2;ratioP2
3971;SDS011;2000;47.572;14.202;2023-04-15T00:01:06;0.97;;;0.20;;
3971;SDS011;2000;47.572;14.202;2023-04-15T00:03:33;0.83;;;0.20;;
3971;SDS011;2000;47.572;14.202;2023-04-15T00:06:01;0.20;;;0.20;;
3971;SDS011;2000;47.572;14.202;2023-04-15T00:08:27;0.20;;;0.20;;
3971;SDS011;2000;47.572;14.202;2023-04-15T00:10:55;0.40;;;0.17;;
3971;SDS011;2000;47.572;14.202;2023-04-15T00:13:24;0.20;;;0.10;;
3971;SDS011;2000;47.572;14.202;2023-04-15T00:15:51;0.20;;;0.10;;
3971;SDS011;2000;47.572;14.202;2023-04-15T00:18:18;0.20;;;0.20;;
3971;SDS011;2000;47.572;14.202;2023-04-15T00:20:45;0.30;;;0.20;;
3971;SDS011;2000;47.572;14.202;2023-04-15T00:23:12;1.53;;;0.20;;
3971;SDS011;2000;47.572;14.202;2023-04-15T00:25:39;0.23;;;0.20;;
3971;SDS011;2000;47.572;14.202;2023-04-15T00:28:06;0.20;;;0.10;;
3971;SDS011;2000;47.572;14.202;2023-04-15T00:30:33;0.30;;;0.20;;
3971;SDS011;2000;47.572;14.202;2023-04-15T00:33:00;1.33;;;0.20;;
3971;SDS011;2000;47.572;14.202;2023-04-15T00:35:27;0.20;;;0.10;;
3971;SDS011;2000;47.572;14.202;2023-04-15T00:37:54;0.20;;;0.20;;
3971;SDS011;2000;47.572;14.202;2023-04-15T00:40:22;0.30;;;0.20;;
3971;SDS011;2000;47.572;14.202;2023-04-15T00:42:50;0.30;;;0.20;;
3971;SDS011;2000;47.572;14.202;2023-04-15T00:45:17;0.20;;;0.20;;
3971;SDS011;2000;47.572;14.202;2023-04-15T00:47:44;0.30;;;0.30;;
3971;SDS011;2000;47.572;14.202;2023-04-15T00:50:11;2.30;;;0.30;;
3971;SDS011;2000;47.572;14.202;2023-04-15T00:52:38;2.50;;;0.20;;
3971;SDS011;2000;47.572;14.202;2023-04-15T00:55:06;0.20;;;0.20;;
3971;SDS011;2000;47.572;14.202;2023-04-15T00:57:34;0.30;;;0.20;;
3971;SDS011;2000;47.572;14.202;2023-04-15T01:00:01;0.97;;;0.20;;
3971;SDS011;2000;47.572;14.202;2023-04-15T01:02:30;0.20;;;0.20;;
3971;SDS011;2000;47.572;14.202;2023-04-15T01:04:58;0.20;;;0.10;;
3971;SDS011;2000;47.572;14.202;2023-04-15T01:07:25;0.27;;;0.20;;
3971;SDS011;2000;47.572;14.202;2023-04-15T01:09:51;0.20;;;0.20;;
3971;SDS011;2000;47.572;14.202;2023-04-15T01:12:18;1.80;;;0.10;;
3971;SDS011;2000;47.572;14.202;2023-04-15T01:14:45;0.20;;;0.10;;
3971;SDS011;2000;47.572;14.202;2023-04-15T01:17:12;0.30;;;0.20;;
3971;SDS011;2000;47.572;14.202;2023-04-15T01:19:39;0.30;;;0.30;;
3971;SDS011;2000;47.572;14.202;2023-04-15T01:22:06;0.20;;;0.17;;
3971;SDS011;2000;47.572;14.202;2023-04-15T01:24:33;0.20;;;0.20;;
3971;SDS011;2000;47.572;14.202;2023-04-15T01:27:00;0.20;;;0.20;;
3971;SDS011;2000;47.572;14.202;2023-04-15T01:29:28;0.20;;;0.10;;
3971;SDS011;2000;47.572;14.202;2023-04-15T01:31:55;0.20;;;0.20;;
3971;SDS011;2000;47.572;14.202;2023-04-15T01:34:22;0.30;;;0.20;;
3971;SDS011;2000;47.572;14.202;2023-04-15T01:36:49;0.20;;;0.13;;
3971;SDS011;2000;47.572;14.202;2023-04-15T01:39:16;0.20;;;0.10;;
3971;SDS011;2000;47.572;14.202;2023-04-15T01:41:43;0.20;;;0.10;;
3971;SDS011;2000;47.572;14.202;2023-04-15T01:44:09;0.30;;;0.20;;
3971;SDS011;2000;47.572;14.202;2023-04-15T01:46:36;0.20;;;0.20;;
3971;SDS011;2000;47.572;14.202;2023-04-15T01:49:03;0.30;;;0.20;;
3971;SDS011;2000;47.572;14.202;2023-04-15T01:51:30;0.20;;;0.10;;
3971;SDS011;2000;47.572;14.202;2023-04-15T01:53:57;0.20;;;0.20;;
3971;SDS011;2000;47.572;14.202;2023-04-15T01:56:24;0.20;;;0.17;;
3971;SDS011;2000;47.572;14.202;2023-04-15T01:58:51;0.40;;;0.20;;
3971;SDS011;2000;47.572;14.202;2023-04-15T02:01:18;0.20;;;0.10;;
3971;SDS011;2000;47.572;14.202;2023-04-15T02:03:45;0.30;;;0.20;;
3971;SDS011;2000;47.572;14.202;2023-04-15T02:06:13;0.20;;;0.10;;
3971;SDS011;2000;47.572;14.202;2023-04-15T02:08:40;0.50;;;0.20;;
3971;SDS011;2000;47.572;14.202;2023-04-15T02:11:07;2.50;;;0.20;;
3971;SDS011;2000;47.572;14.202;2023-04-15T02:13:34;0.63;;;0.20;;
3971;SDS011;2000;47.572;14.202;2023-04-15T02:16:00;0.20;;;0.20;;
3971;SDS011;2000;47.572;14.202;2023-04-15T02:18:28;0.20;;;0.10;;
3971;SDS011;2000;47.572;14.202;2023-04-15T02:20:55;0.20;;;0.20;;
3971;SDS011;2000;47.572;14.202;2023-04-15T02:23:24;0.20;;;0.20;;
3971;SDS011;2000;47.572;14.202;2023-04-15T02:25:51;0.30;;;0.20;;
3971;SDS011;2000;47.572;14.202;2023-04-15T02:28:19;1.07;;;0.20;;
3971;SDS011;2000;47.572;14.202;2023-04-15T02:30:47;0.20;;;0.20;;
3971;SDS011;2000;47.572;14.202;2023-04-15T02:33:18;0.20;;;0.20;;
3971;SDS011;2000;47.572;14.202;2023-04-15T02:35:45;2.87;;;0.40;;
3971;SDS011;2000;47.572;14.202;2023-04-15T02:38:12;0.60;;;0.30;;
3971;SDS011;2000;47.572;14.202;2023-04-15T02:40:42;0.60;;;0.20;;
3971;SDS011;2000;47.572;14.202;2023-04-15T02:43:09;0.40;;;0.20;;
3971;SDS011;2000;47.572;14.202;2023-04-15T02:45:36;0.30;;;0.27;;
3971;SDS011;2000;47.572;14.202;2023-04-15T02:48:02;0.30;;;0.23;;
3971;SDS011;2000;47.572;14.202;2023-04-15T02:50:31;0.40;;;0.30;;
3971;SDS011;2000;47.572;14.202;2023-04-15T02:52:58;0.40;;;0.20;;
3971;SDS011;2000;47.572;14.202;2023-04-15T02:55:27;0.30;;;0.20;;
3971;SDS011;2000;47.572;14.202;2023-04-15T02:57:54;0.97;;;0.20;;
3971;SDS011;2000;47.572;14.202;2023-04-15T03:00:21;0.60;;;0.23;;
3971;SDS011;2000;47.572;14.202;2023-04-15T03:02:50;0.20;;;0.20;;
3971;SDS011;2000;47.572;14.202;2023-04-15T03:05:22;0.30;;;0.30;;
3971;SDS011;2000;47.572;14.202;2023-04-15T03:07:51;0.20;;;0.20;;
3971;SDS011;2000;47.572;14.202;2023-04-15T03:10:19;0.20;;;0.20;;
3971;SDS011;2000;47.572;14.202;2023-04-15T03:12:46;0.30;;;0.20;;
3971;SDS011;2000;47.572;14.202;2023-04-15T03:15:13;0.40;;;0.30;;
3971;SDS011;2000;47.572;14.202;2023-04-15T03:17:40;0.30;;;0.27;;
3971;SDS011;2000;47.572;14.202;2023-04-15T03:20:07;0.40;;;0.40;;
3971;SDS011;2000;47.572;14.202;2023-04-15T03:22:34;0.30;;;0.30;;
3971;SDS011;2000;47.572;14.202;2023-04-15T03:25:01;0.30;;;0.27;;
3971;SDS011;2000;47.572;14.202;2023-04-15T03:27:27;0.20;;;0.20;;
3971;SDS011;2000;47.572;14.202;2023-04-15T03:29:54;2.10;;;0.30;;
3971;SDS011;2000;47.572;14.202;2023-04-15T03:32:22;0.20;;;0.20;;
3971;SDS011;2000;47.572;14.202;2023-04-15T03:34:49;0.20;;;0.20;;
3971;SDS011;2000;47.572;14.202;2023-04-15T03:37:16;0.30;;;0.20;;
3971;SDS011;2000;47.572;14.202;2023-04-15T03:39:43;0.30;;;0.30;;
3971;SDS011;2000;47.572;14.202;2023-04-15T03:42:09;0.30;;;0.20;;
3971;SDS011;2000;47.572;14.202;2023-04-15T03:44:36;0.30;;;0.30;;
3971;SDS011;2000;47.572;14.202;2023-04-15T03:47:03;0.20;;;0.20;;
3971;SDS011;2000;47.572;14.202;2023-04-15T03:49:30;0.30;;;0.30;;
3971;SDS011;2000;47.572;14.202;2023-04-15T03:51:57;0.30;;;0.20;;
3971;SDS011;2000;47.572;14.202;2023-04-15T03:54:24;0.43;;;0.20;;
3971;SDS011;2000;47.572;14.202;2023-04-15T03:56:51;0.40;;;0.30;;
3971;SDS011;2000;47.572;14.202;2023-04-15T03:59:18;0.40;;;0.30;;
3971;SDS011;2000;47.572;14.202;2023-04-15T04:01:45;0.30;;;0.30;;
3971;SDS011;2000;47.572;14.202;2023-04-15T04:04:12;0.20;;;0.20;;
3971;SDS011;2000;47.572;14.202;2023-04-15T04:06:39;0.30;;;0.20;;
3971;SDS011;2000;47.572;14.202;2023-04-15T04:09:06;0.40;;;0.30;;
3971;SDS011;2000;47.572;14.202;2023-04-15T04:11:33;0.57;;;0.33;;
3971;SDS011;2000;47.572;14.202;2023-04-15T04:13:59;0.30;;;0.20;;
3971;SDS011;2000;47.572;14.202;2023-04-15T04:16:26;0.30;;;0.30;;
3971;SDS011;2000;47.572;14.202;2023-04-15T04:18:53;0.67;;;0.40;;
3971;SDS011;2000;47.572;14.202;2023-04-15T04:21:20;0.30;;;0.20;;
3971;SDS011;2000;47.572;14.202;2023-04-15T04:23:47;0.30;;;0.30;;
3971;SDS011;2000;47.572;14.202;2023-04-15T04:26:15;0.33;;;0.27;;
3971;SDS011;2000;47.572;14.202;2023-04-15T04:28:42;0.50;;;0.40;;
3971;SDS011;2000;47.572;14.202;2023-04-15T04:31:09;0.30;;;0.20;;
3971;SDS011;2000;47.572;14.202;2023-04-15T04:33:36;0.53;;;0.40;;
3971;SDS011;2000;47.572;14.202;2023-04-15T04:36:03;0.30;;;0.30;;
3971;SDS011;2000;47.572;14.202;2023-04-15T04:38:30;0.30;;;0.20;;
3971;SDS011;2000;47.572;14.202;2023-04-15T04:40:56;0.43;;;0.30;;
3971;SDS011;2000;47.572;14.202;2023-04-15T04:43:23;0.83;;;0.37;;
3971;SDS011;2000;47.572;14.202;2023-04-15T04:45:50;0.60;;;0.40;;
3971;SDS011;2000;47.572;14.202;2023-04-15T04:48:17;0.50;;;0.37;;
3971;SDS011;2000;47.572;14.202;2023-04-15T04:50:44;0.30;;;0.30;;
3971;SDS011;2000;47.572;14.202;2023-04-15T04:53:12;0.50;;;0.30;;
3971;SDS011;2000;47.572;14.202;2023-04-15T04:55:39;0.30;;;0.30;;
3971;SDS011;2000;47.572;14.202;2023-04-15T04:58:05;1.33;;;0.50;;
3971;SDS011;2000;47.572;14.202;2023-04-15T05:00:32;0.30;;;0.30;;
3971;SDS011;2000;47.572;14.202;2023-04-15T05:02:59;0.40;;;0.30;;
3971;SDS011;2000;47.572;14.202;2023-04-15T05:05:26;0.90;;;0.30;;
3971;SDS011;2000;47.572;14.202;2023-04-15T05:07:53;1.10;;;0.40;;
3971;SDS011;2000;47.572;14.202;2023-04-15T05:10:20;1.00;;;0.40;;
3971;SDS011;2000;47.572;14.202;2023-04-15T05:12:46;0.80;;;0.40;;
3971;SDS011;2000;47.572;14.202;2023-04-15T05:15:14;0.40;;;0.33;;
3971;SDS011;2000;47.572;14.202;2023-04-15T05:17:40;0.37;;;0.37;;
3971;SDS011;2000;47.572;14.202;2023-04-15T05:20:07;0.30;;;0.23;;
3971;SDS011;2000;47.572;14.202;2023-04-15T05:22:35;0.20;;;0.20;;
3971;SDS011;2000;47.572;14.202;2023-04-15T05:25:02;0.30;;;0.20;;
3971;SDS011;2000;47.572;14.202;2023-04-15T05:27:29;0.30;;;0.20;;
3971;SDS011;2000;47.572;14.202;2023-04-15T05:29:56;0.30;;;0.27;;
3971;SDS011;2000;47.572;14.202;2023-04-15T05:32:22;0.47;;;0.30;;
3971;SDS011;2000;47.572;14.202;2023-04-15T05:34:49;0.50;;;0.50;;
3971;SDS011;2000;47.572;14.202;2023-04-15T05:37:16;0.30;;;0.30;;
3971;SDS011;2000;47.572;14.202;2023-04-15T05:39:46;0.57;;;0.40;;
3971;SDS011;2000;47.572;14.202;2023-04-15T05:42:13;0.30;;;0.30;;
3971;SDS011;2000;47.572;14.202;2023-04-15T05:44:40;0.30;;;0.23;;
3971;SDS011;2000;47.572;14.202;2023-04-15T05:47:07;0.30;;;0.20;;
3971;SDS011;2000;47.572;14.202;2023-04-15T05:49:35;0.50;;;0.20;;
3971;SDS011;2000;47.572;14.202;2023-04-15T05:52:02;0.30;;;0.30;;
3971;SDS011;2000;47.572;14.202;2023-04-15T05:54:29;0.30;;;0.20;;
3971;SDS011;2000;47.572;14.202;2023-04-15T05:56:55;0.30;;;0.20;;
3971;SDS011;2000;47.572;14.202;2023-04-15T05:59:23;0.30;;;0.27;;
3971;SDS011;2000;47.572;14.202;2023-04-15T06:01:50;0.20;;;0.20;;
3971;SDS011;2000;47.572;14.202;2023-04-15T06:04:17;0.30;;;0.30;;
3971;SDS011;2000;47.572;14.202;2023-04-15T06:06:44;0.20;;;0.20;;
3971;SDS011;2000;47.572;14.202;2023-04-15T06:09:11;1.13;;;0.50;;
3971;SDS011;2000;47.572;14.202;2023-04-15T06:11:38;0.40;;;0.40;;
3971;SDS011;2000;47.572;14.202;2023-04-15T06:14:06;0.30;;;0.20;;
3971;SDS011;2000;47.572;14.202;2023-04-15T06:16:33;2.50;;;0.57;;
3971;SDS011;2000;47.572;14.202;2023-04-15T06:19:02;0.50;;;0.43;;
3971;SDS011;2000;47.572;14.202;2023-04-15T06:21:29;0.30;;;0.20;;
3971;SDS011;2000;47.572;14.202;2023-04-15T06:23:57;5.67;;;0.90;;
3971;SDS011;2000;47.572;14.202;2023-04-15T06:26:26;0.50;;;0.43;;
3971;SDS011;2000;47.572;14.202;2023-04-15T06:28:53;0.40;;;0.40;;
3971;SDS011;2000;47.572;14.202;2023-04-15T06:31:21;0.67;;;0.40;;
3971;SDS011;2000;47.572;14.202;2023-04-15T06:33:48;1.40;;;0.30;;
3971;SDS011;2000;47.572;14.202;2023-04-15T06:36:14;1.90;;;0.53;;
3971;SDS011;2000;47.572;14.202;2023-04-15T06:38:41;0.60;;;0.60;;
3971;SDS011;2000;47.572;14.202;2023-04-15T06:41:08;0.70;;;0.47;;
3971;SDS011;2000;47.572;14.202;2023-04-15T06:43:35;0.70;;;0.70;;
3971;SDS011;2000;47.572;14.202;2023-04-15T06:46:01;0.50;;;0.50;;
3971;SDS011;2000;47.572;14.202;2023-04-15T06:48:28;4.37;;;0.90;;
3971;SDS011;2000;47.572;14.202;2023-04-15T06:50:55;0.60;;;0.60;;
3971;SDS011;2000;47.572;14.202;2023-04-15T06:53:26;1.30;;;0.70;;
3971;SDS011;2000;47.572;14.202;2023-04-15T06:55:55;0.77;;;0.77;;
3971;SDS011;2000;47.572;14.202;2023-04-15T06:58:22;0.53;;;0.50;;
3971;SDS011;2000;47.572;14.202;2023-04-15T07:00:51;0.47;;;0.47;;
3971;SDS011;2000;47.572;14.202;2023-04-15T07:03:18;0.50;;;0.50;;
3971;SDS011;2000;47.572;14.202;2023-04-15T07:05:45;3.10;;;0.80;;
3971;SDS011;2000;47.572;14.202;2023-04-15T07:08:11;0.70;;;0.67;;
3971;SDS011;2000;47.572;14.202;2023-04-15T07:10:39;6.10;;;0.40;;
3971;SDS011;2000;47.572;14.202;2023-04-15T07:13:06;1.73;;;0.83;;
3971;SDS011;2000;47.572;14.202;2023-04-15T07:15:34;0.40;;;0.40;;
3971;SDS011;2000;47.572;14.202;2023-04-15T07:18:01;1.03;;;0.57;;
3971;SDS011;2000;47.572;14.202;2023-04-15T07:20:28;2.40;;;1.90;;
3971;SDS011;2000;47.572;14.202;2023-04-15T07:22:54;1.63;;;1.00;;
3971;SDS011;2000;47.572;14.202;2023-04-15T07:25:21;5.83;;;3.20;;
3971;SDS011;2000;47.572;14.202;2023-04-15T07:27:48;2.03;;;1.40;;
3971;SDS011;2000;47.572;14.202;2023-04-15T07:30:15;1.37;;;1.20;;
3971;SDS011;2000;47.572;14.202;2023-04-15T07:32:42;6.67;;;1.17;;
3971;SDS011;2000;47.572;14.202;2023-04-15T07:35:08;0.60;;;0.60;;
3971;SDS011;2000;47.572;14.202;2023-04-15T07:37:36;0.83;;;0.60;;
3971;SDS011;2000;47.572;14.202;2023-04-15T07:40:02;1.23;;;1.10;;
3971;SDS011;2000;47.572;14.202;2023-04-15T07:42:30;0.67;;;0.50;;
3971;SDS011;2000;47.572;14.202;2023-04-15T07:44:57;1.33;;;0.77;;
3971;SDS011;2000;47.572;14.202;2023-04-15T07:47:24;0.73;;;0.70;;
3971;SDS011;2000;47.572;14.202;2023-04-15T07:49:51;0.53;;;0.50;;
3971;SDS011;2000;47.572;14.202;2023-04-15T07:52:18;1.13;;;1.00;;
3971;SDS011;2000;47.572;14.202;2023-04-15T07:54:44;0.50;;;0.50;;
3971;SDS011;2000;47.572;14.202;2023-04-15T07:57:12;1.70;;;1.00;;
3971;SDS011;2000;47.572;14.202;2023-04-15T07:59:39;0.80;;;0.80;;
3971;SDS011;2000;47.572;14.202;2023-04-15T08:02:05;0.57;;;0.57;;
3971;SDS011;2000;47.572;14.202;2023-04-15T08:04:33;0.70;;;0.70;;
3971;SDS011;2000;47.572;14.202;2023-04-15T08:07:00;1.13;;;0.80;;
3971;SDS011;2000;47.572;14.202;2023-04-15T08:09:28;1.37;;;0.77;;
3971;SDS011;2000;47.572;14.202;2023-04-15T08:11:55;0.53;;;0.53;;
3971;SDS011;2000;47.572;14.202;2023-04-15T08:14:23;0.97;;;0.97;;
3971;SDS011;2000;47.572;14.202;2023-04-15T08:16:50;1.67;;;1.10;;
3971;SDS011;2000;47.572;14.202;2023-04-15T08:19:16;0.70;;;0.60;;
3971;SDS011;2000;47.572;14.202;2023-04-15T08:21:43;1.00;;;0.80;;
3971;SDS011;2000;47.572;14.202;2023-04-15T08:24:10;3.07;;;0.77;;
3971;SDS011;2000;47.572;14.202;2023-04-15T08:26:38;1.40;;;0.60;;
3971;SDS011;2000;47.572;14.202;2023-04-15T08:29:05;1.53;;;0.90;;
3971;SDS011;2000;47.572;14.202;2023-04-15T08:31:31;1.30;;;1.20;;
3971;SDS011;2000;47.572;14.202;2023-04-15T08:33:58;1.53;;;1.43;;
3971;SDS011;2000;47.572;14.202;2023-04-15T08:36:25;1.80;;;1.70;;
3971;SDS011;2000;47.572;14.202;2023-04-15T08:38:52;1.60;;;1.47;;
3971;SDS011;2000;47.572;14.202;2023-04-15T08:41:22;1.93;;;1.83;;
3971;SDS011;2000;47.572;14.202;2023-04-15T08:44:12;1.60;;;1.20;;
3971;SDS011;2000;47.572;14.202;2023-04-15T08:46:37;0.93;;;0.70;;
3971;SDS011;2000;47.572;14.202;2023-04-15T08:49:05;1.13;;;0.93;;
3971;SDS011;2000;47.572;14.202;2023-04-15T08:51:36;1.30;;;1.00;;
3971;SDS011;2000;47.572;14.202;2023-04-15T08:54:03;1.43;;;1.10;;
3971;SDS011;2000;47.572;14.202;2023-04-15T08:56:30;1.50;;;1.40;;
3971;SDS011;2000;47.572;14.202;2023-04-15T08:58:58;0.63;;;0.50;;
3971;SDS011;2000;47.572;14.202;2023-04-15T09:01:26;1.07;;;0.97;;
3971;SDS011;2000;47.572;14.202;2023-04-15T09:03:53;1.07;;;0.70;;
3971;SDS011;2000;47.572;14.202;2023-04-15T09:06:20;1.00;;;1.00;;
3971;SDS011;2000;47.572;14.202;2023-04-15T09:08:50;0.80;;;0.80;;
3971;SDS011;2000;47.572;14.202;2023-04-15T09:11:18;9.00;;;1.40;;
3971;SDS011;2000;47.572;14.202;2023-04-15T09:13:47;0.80;;;0.80;;
3971;SDS011;2000;47.572;14.202;2023-04-15T09:16:14;0.77;;;0.77;;
3971;SDS011;2000;47.572;14.202;2023-04-15T09:18:41;1.50;;;1.40;;
3971;SDS011;2000;47.572;14.202;2023-04-15T09:21:09;1.17;;;1.07;;
3971;SDS011;2000;47.572;14.202;2023-04-15T09:23:38;1.07;;;0.83;;
3971;SDS011;2000;47.572;14.202;2023-04-15T09:26:06;2.90;;;0.97;;
3971;SDS011;2000;47.572;14.202;2023-04-15T09:28:39;0.80;;;0.80;;
3971;SDS011;2000;47.572;14.202;2023-04-15T09:31:07;1.50;;;1.17;;
3971;SDS011;2000;47.572;14.202;2023-04-15T09:33:35;0.97;;;0.60;;
3971;SDS011;2000;47.572;14.202;2023-04-15T09:36:21;1.30;;;0.80;;
3971;SDS011;2000;47.572;14.202;2023-04-15T09:38:58;3.07;;;1.10;;
3971;SDS011;2000;47.572;14.202;2023-04-15T09:41:25;1.43;;;1.00;;
3971;SDS011;2000;47.572;14.202;2023-04-15T09:43:52;1.60;;;1.13;;
3971;SDS011;2000;47.572;14.202;2023-04-15T09:46:19;0.77;;;0.77;;
3971;SDS011;2000;47.572;14.202;2023-04-15T09:48:46;1.10;;;1.10;;
3971;SDS011;2000;47.572;14.202;2023-04-15T09:51:13;0.97;;;0.97;;
3971;SDS011;2000;47.572;14.202;2023-04-15T09:53:40;3.13;;;0.90;;
3971;SDS011;2000;47.572;14.202;2023-04-15T09:56:07;0.70;;;0.70;;
3971;SDS011;2000;47.572;14.202;2023-04-15T09:58:35;0.50;;;0.47;;
3971;SDS011;2000;47.572;14.202;2023-04-15T10:01:04;1.03;;;0.90;;
3971;SDS011;2000;47.572;14.202;2023-04-15T10:03:35;0.50;;;0.40;;
3971;SDS011;2000;47.572;14.202;2023-04-15T10:06:03;0.83;;;0.80;;
3971;SDS011;2000;47.572;14.202;2023-04-15T10:08:32;1.23;;;0.70;;
3971;SDS011;2000;47.572;14.202;2023-04-15T10:11:03;0.47;;;0.37;;
3971;SDS011;2000;47.572;14.202;2023-04-15T10:13:30;2.00;;;0.40;;
3971;SDS011;2000;47.572;14.202;2023-04-15T10:18:29;1.07;;;0.60;;
3971;SDS011;2000;47.572;14.202;2023-04-15T10:20:58;0.50;;;0.47;;
3971;SDS011;2000;47.572;14.202;2023-04-15T10:23:26;0.30;;;0.30;;
3971;SDS011;2000;47.572;14.202;2023-04-15T10:25:53;2.30;;;1.60;;
3971;SDS011;2000;47.572;14.202;2023-04-15T10:28:20;2.87;;;1.90;;
3971;SDS011;2000;47.572;14.202;2023-04-15T10:30:50;0.57;;;0.40;;
3971;SDS011;2000;47.572;14.202;2023-04-15T10:33:21;0.30;;;0.30;;
3971;SDS011;2000;47.572;14.202;2023-04-15T10:35:50;0.30;;;0.30;;
3971;SDS011;2000;47.572;14.202;2023-04-15T10:41:18;0.30;;;0.30;;
3971;SDS011;2000;47.572;14.202;2023-04-15T10:43:55;0.40;;;0.30;;
3971;SDS011;2000;47.572;14.202;2023-04-15T10:46:34;0.30;;;0.30;;
3971;SDS011;2000;47.572;14.202;2023-04-15T10:49:09;0.30;;;0.20;;
3971;SDS011;2000;47.572;14.202;2023-04-15T10:51:44;0.80;;;0.40;;
3971;SDS011;2000;47.572;14.202;2023-04-15T10:54:31;1.73;;;0.63;;
3971;SDS011;2000;47.572;14.202;2023-04-15T11:08:11;1.37;;;0.60;;
3971;SDS011;2000;47.572;14.202;2023-04-15T11:13:14;0.73;;;0.73;;
3971;SDS011;2000;47.572;14.202;2023-04-15T11:15:43;0.80;;;0.40;;
3971;SDS011;2000;47.572;14.202;2023-04-15T11:18:11;0.30;;;0.20;;
3971;SDS011;2000;47.572;14.202;2023-04-15T11:20:39;0.40;;;0.30;;
3971;SDS011;2000;47.572;14.202;2023-04-15T11:23:07;0.37;;;0.37;;
3971;SDS011;2000;47.572;14.202;2023-04-15T11:25:41;0.40;;;0.40;;
3971;SDS011;2000;47.572;14.202;2023-04-15T11:28:09;0.30;;;0.30;;
3971;SDS011;2000;47.572;14.202;2023-04-15T11:30:36;0.37;;;0.30;;
3971;SDS011;2000;47.572;14.202;2023-04-15T11:33:04;0.50;;;0.40;;
3971;SDS011;2000;47.572;14.202;2023-04-15T11:35:33;0.43;;;0.43;;
3971;SDS011;2000;47.572;14.202;2023-04-15T11:38:04;0.50;;;0.40;;
3971;SDS011;2000;47.572;14.202;2023-04-15T11:40:31;0.80;;;0.70;;
3971;SDS011;2000;47.572;14.202;2023-04-15T11:43:07;0.63;;;0.37;;
3971;SDS011;2000;47.572;14.202;2023-04-15T11:48:18;0.50;;;0.40;;
3971;SDS011;2000;47.572;14.202;2023-04-15T11:50:51;1.80;;;1.70;;
3971;SDS011;2000;47.572;14.202;2023-04-15T11:56:08;1.93;;;0.60;;
3971;SDS011;2000;47.572;14.202;2023-04-15T11:58:36;0.40;;;0.40;;
3971;SDS011;2000;47.572;14.202;2023-04-15T12:01:04;0.60;;;0.60;;
3971;SDS011;2000;47.572;14.202;2023-04-15T12:03:39;0.83;;;0.83;;
3971;SDS011;2000;47.572;14.202;2023-04-15T12:11:14;1.27;;;0.80;;
3971;SDS011;2000;47.572;14.202;2023-04-15T12:13:46;2.60;;;1.20;;
3971;SDS011;2000;47.572;14.202;2023-04-15T12:16:19;0.87;;;0.87;;
3971;SDS011;2000;47.572;14.202;2023-04-15T12:18:53;5.40;;;2.43;;
3971;SDS011;2000;47.572;14.202;2023-04-15T12:21:22;1.13;;;1.10;;
3971;SDS011;2000;47.572;14.202;2023-04-15T12:23:54;0.60;;;0.60;;
3971;SDS011;2000;47.572;14.202;2023-04-15T12:26:26;0.77;;;0.60;;
3971;SDS011;2000;47.572;14.202;2023-04-15T12:29:16;0.40;;;0.40;;
3971;SDS011;2000;47.572;14.202;2023-04-15T12:31:49;0.60;;;0.60;;
3971;SDS011;2000;47.572;14.202;2023-04-15T12:34:27;0.63;;;0.50;;
3971;SDS011;2000;47.572;14.202;2023-04-15T12:37:00;0.60;;;0.60;;
3971;SDS011;2000;47.572;14.202;2023-04-15T12:39:30;0.60;;;0.60;;
3971;SDS011;2000;47.572;14.202;2023-04-15T12:41:58;2.00;;;0.57;;
3971;SDS011;2000;47.572;14.202;2023-04-15T12:44:28;2.60;;;0.67;;
3971;SDS011;2000;47.572;14.202;2023-04-15T12:46:55;3.60;;;0.90;;
3971;SDS011;2000;47.572;14.202;2023-04-15T12:49:22;1.90;;;0.87;;
3971;SDS011;2000;47.572;14.202;2023-04-15T12:51:51;0.60;;;0.60;;
3971;SDS011;2000;47.572;14.202;2023-04-15T12:54:19;0.60;;;0.57;;
3971;SDS011;2000;47.572;14.202;2023-04-15T12:56:47;0.77;;;0.77;;
3971;SDS011;2000;47.572;14.202;2023-04-15T12:59:15;0.50;;;0.50;;
3971;SDS011;2000;47.572;14.202;2023-04-15T13:01:46;1.13;;;0.50;;
3971;SDS011;2000;47.572;14.202;2023-04-15T13:04:13;0.73;;;0.63;;
3971;SDS011;2000;47.572;14.202;2023-04-15T13:06:41;0.50;;;0.50;;
3971;SDS011;2000;47.572;14.202;2023-04-15T13:09:09;0.87;;;0.87;;
3971;SDS011;2000;47.572;14.202;2023-04-15T13:11:36;1.93;;;0.50;;
3971;SDS011;2000;47.572;14.202;2023-04-15T13:14:03;1.43;;;0.50;;
3971;SDS011;2000;47.572;14.202;2023-04-15T13:16:31;0.37;;;0.37;;
3971;SDS011;2000;47.572;14.202;2023-04-15T13:18:58;1.33;;;1.13;;
3971;SDS011;2000;47.572;14.202;2023-04-15T13:21:26;0.40;;;0.40;;
3971;SDS011;2000;47.572;14.202;2023-04-15T13:23:53;0.47;;;0.47;;
3971;SDS011;2000;47.572;14.202;2023-04-15T13:26:21;0.50;;;0.40;;
3971;SDS011;2000;47.572;14.202;2023-04-15T13:28:48;0.30;;;0.20;;
3971;SDS011;2000;47.572;14.202;2023-04-15T13:31:14;1.10;;;0.40;;
3971;SDS011;2000;47.572;14.202;2023-04-15T13:33:41;0.77;;;0.40;;
3971;SDS011;2000;47.572;14.202;2023-04-15T13:36:08;0.70;;;0.30;;
3971;SDS011;2000;47.572;14.202;2023-04-15T13:38:35;0.90;;;0.40;;
3971;SDS011;2000;47.572;14.202;2023-04-15T13:41:02;0.40;;;0.40;;
3971;SDS011;2000;47.572;14.202;2023-04-15T13:43:29;0.70;;;0.50;;
3971;SDS011;2000;47.572;14.202;2023-04-15T13:45:55;0.40;;;0.40;;
3971;SDS011;2000;47.572;14.202;2023-04-15T13:48:22;0.40;;;0.40;;
3971;SDS011;2000;47.572;14.202;2023-04-15T13:50:49;0.40;;;0.40;;
3971;SDS011;2000;47.572;14.202;2023-04-15T13:53:16;0.57;;;0.57;;
3971;SDS011;2000;47.572;14.202;2023-04-15T13:55:42;0.70;;;0.47;;
3971;SDS011;2000;47.572;14.202;2023-04-15T13:58:10;1.10;;;0.50;;
3971;SDS011;2000;47.572;14.202;2023-04-15T14:00:36;2.07;;;0.80;;
3971;SDS011;2000;47.572;14.202;2023-04-15T14:03:03;0.40;;;0.40;;
3971;SDS011;2000;47.572;14.202;2023-04-15T14:05:31;1.47;;;0.93;;
3971;SDS011;2000;47.572;14.202;2023-04-15T14:07:58;0.60;;;0.60;;
3971;SDS011;2000;47.572;14.202;2023-04-15T14:10:25;1.00;;;1.00;;
3971;SDS011;2000;47.572;14.202;2023-04-15T14:12:51;1.77;;;1.07;;
3971;SDS011;2000;47.572;14.202;2023-04-15T14:15:18;0.70;;;0.70;;
3971;SDS011;2000;47.572;14.202;2023-04-15T14:17:45;1.20;;;1.17;;
3971;SDS011;2000;47.572;14.202;2023-04-15T14:20:12;2.27;;;1.33;;
3971;SDS011;2000;47.572;14.202;2023-04-15T14:22:42;1.27;;;1.00;;
3971;SDS011;2000;47.572;14.202;2023-04-15T14:25:09;0.90;;;0.90;;
3971;SDS011;2000;47.572;14.202;2023-04-15T14:27:48;3.70;;;2.60;;
3971;SDS011;2000;47.572;14.202;2023-04-15T14:30:16;0.70;;;0.70;;
3971;SDS011;2000;47.572;14.202;2023-04-15T14:32:43;4.10;;;1.80;;
3971;SDS011;2000;47.572;14.202;2023-04-15T14:35:10;2.90;;;1.20;;
3971;SDS011;2000;47.572;14.202;2023-04-15T14:37:37;2.50;;;1.60;;
3971;SDS011;2000;47.572;14.202;2023-04-15T14:40:03;2.70;;;1.07;;
3971;SDS011;2000;47.572;14.202;2023-04-15T14:42:31;2.50;;;1.37;;
3971;SDS011;2000;47.572;14.202;2023-04-15T14:44:58;1.30;;;1.20;;
3971;SDS011;2000;47.572;14.202;2023-04-15T14:47:24;1.73;;;1.63;;
3971;SDS011;2000;47.572;14.202;2023-04-15T14:49:51;7.43;;;1.13;;
3971;SDS011;2000;47.572;14.202;2023-04-15T14:52:18;0.90;;;0.90;;
3971;SDS011;2000;47.572;14.202;2023-04-15T14:54:45;1.43;;;1.20;;
3971;SDS011;2000;47.572;14.202;2023-04-15T14:57:12;2.27;;;1.33;;
3971;SDS011;2000;47.572;14.202;2023-04-15T14:59:39;1.70;;;1.00;;
3971;SDS011;2000;47.572;14.202;2023-04-15T15:02:06;1.70;;;1.40;;
3971;SDS011;2000;47.572;14.202;2023-04-15T15:04:34;1.13;;;1.03;;
3971;SDS011;2000;47.572;14.202;2023-04-15T15:07:01;5.90;;;1.10;;
3971;SDS011;2000;47.572;14.202;2023-04-15T15:09:28;2.63;;;0.90;;
3971;SDS011;2000;47.572;14.202;2023-04-15T15:11:55;1.13;;;1.03;;
3971;SDS011;2000;47.572;14.202;2023-04-15T15:14:23;3.13;;;0.93;;
3971;SDS011;2000;47.572;14.202;2023-04-15T15:16:51;2.40;;;1.17;;
3971;SDS011;2000;47.572;14.202;2023-04-15T15:19:18;1.10;;;1.00;;
3971;SDS011;2000;47.572;14.202;2023-04-15T15:21:45;7.60;;;1.40;;
3971;SDS011;2000;47.572;14.202;2023-04-15T15:24:12;1.00;;;0.90;;
3971;SDS011;2000;47.572;14.202;2023-04-15T15:26:39;1.20;;;1.10;;
3971;SDS011;2000;47.572;14.202;2023-04-15T15:29:05;8.30;;;3.60;;
3971;SDS011;2000;47.572;14.202;2023-04-15T15:31:35;1.90;;;1.53;;
3971;SDS011;2000;47.572;14.202;2023-04-15T15:34:02;4.10;;;2.00;;